EAG2157 SBSP-SBJV
Flight info
| Callsign | EAG2157 |
|---|---|
| Flight time | 0h 40m |
| Altitude | 30000 |
| Route | SOVSI UZ85 RAXIT |
| Aircraft | B38M/M-SDE1FGHILORVWXY/HB1 |
Departure
| Time | 2026-05-05 10:39 |
|---|---|
| Airport | Congonhas–Deputado Freitas Nobre Airport (SBSP) |
Arrival
| Time | 2026-05-05 11:20 |
|---|---|
| Airport | Lauro Carneiro de Loyola Airport (SBJV) |
| Time | Latitude | Longitude | Altitude | Speed | Heading |
|---|---|---|---|---|---|
| 2026-05-05 10:35 | -23.62974 | -46.65694 | 2603 ft | 0 kts | 57° |
| 2026-05-05 10:36 | -23.62968 | -46.65685 | 2603 ft | 5 kts | 57° |
| 2026-05-05 10:36 | -23.62932 | -46.65624 | 2604 ft | 12 kts | 57° |
| 2026-05-05 10:36 | -23.62952 | -46.65556 | 2606 ft | 10 kts | 148° |
| 2026-05-05 10:36 | -23.63036 | -46.65520 | 2605 ft | 18 kts | 171° |
| 2026-05-05 10:37 | -23.63165 | -46.65446 | 2605 ft | 23 kts | 147° |
| 2026-05-05 10:37 | -23.63301 | -46.65351 | 2605 ft | 24 kts | 147° |
| 2026-05-05 10:37 | -23.63443 | -46.65253 | 2604 ft | 25 kts | 147° |
| 2026-05-05 10:37 | -23.63494 | -46.65160 | 2602 ft | 15 kts | 54° |
| 2026-05-05 10:38 | -23.63421 | -46.65124 | 2604 ft | 7 kts | 334° |
| 2026-05-05 10:38 | -23.63416 | -46.65128 | 2604 ft | 0 kts | 327° |
| 2026-05-05 10:39 | -23.63327 | -46.65189 | 2610 ft | 50 kts | 327° |
| 2026-05-05 10:39 | -23.62805 | -46.65551 | 2610 ft | 126 kts | 326° |
| 2026-05-05 10:39 | -23.61904 | -46.66170 | 2689 ft | 175 kts | 330° |
| 2026-05-05 10:39 | -23.60831 | -46.66922 | 3307 ft | 196 kts | 327° |
| 2026-05-05 10:40 | -23.59656 | -46.67927 | 3897 ft | 232 kts | 316° |
| 2026-05-05 10:40 | -23.58655 | -46.69451 | 4603 ft | 256 kts | 294° |
| 2026-05-05 10:40 | -23.58169 | -46.71321 | 5618 ft | 265 kts | 280° |
| 2026-05-05 10:40 | -23.57908 | -46.73299 | 6568 ft | 255 kts | 280° |
| 2026-05-05 10:41 | -23.57566 | -46.75180 | 7443 ft | 250 kts | 281° |
| 2026-05-05 10:41 | -23.57401 | -46.77102 | 8236 ft | 264 kts | 262° |
| 2026-05-05 10:41 | -23.57987 | -46.79048 | 8873 ft | 280 kts | 238° |
| 2026-05-05 10:41 | -23.59298 | -46.80581 | 9806 ft | 282 kts | 214° |
| 2026-05-05 10:42 | -23.62239 | -46.83560 | 11153 ft | 310 kts | 239° |
| 2026-05-05 10:42 | -23.63620 | -46.85451 | 11572 ft | 328 kts | 216° |
| 2026-05-05 10:42 | -23.65708 | -46.86567 | 12026 ft | 344 kts | 199° |
| 2026-05-05 10:43 | -23.67942 | -46.87557 | 12508 ft | 356 kts | 203° |
| 2026-05-05 10:43 | -23.70225 | -46.88660 | 13273 ft | 360 kts | 204° |
| 2026-05-05 10:43 | -23.72519 | -46.89797 | 14021 ft | 365 kts | 204° |
| 2026-05-05 10:43 | -23.74834 | -46.90971 | 14668 ft | 368 kts | 207° |
| 2026-05-05 10:44 | -23.76895 | -46.92623 | 15355 ft | 371 kts | 226° |
| 2026-05-05 10:44 | -23.78445 | -46.94888 | 16006 ft | 375 kts | 234° |
| 2026-05-05 10:44 | -23.79935 | -46.97258 | 16652 ft | 378 kts | 234° |
| 2026-05-05 10:44 | -23.81404 | -46.99619 | 17296 ft | 380 kts | 234° |
| 2026-05-05 10:45 | -23.82889 | -47.02024 | 17933 ft | 383 kts | 235° |
| 2026-05-05 10:45 | -23.84383 | -47.04451 | 18529 ft | 385 kts | 234° |
| 2026-05-05 10:45 | -23.85866 | -47.06864 | 19036 ft | 388 kts | 234° |
| 2026-05-05 10:45 | -23.87378 | -47.09326 | 19541 ft | 390 kts | 234° |
| 2026-05-05 10:46 | -23.88899 | -47.11804 | 20047 ft | 393 kts | 234° |
| 2026-05-05 10:46 | -23.90406 | -47.14261 | 20532 ft | 395 kts | 234° |
| 2026-05-05 10:46 | -23.91945 | -47.16771 | 21032 ft | 398 kts | 234° |
| 2026-05-05 10:46 | -23.93498 | -47.19305 | 21524 ft | 401 kts | 234° |
| 2026-05-05 10:47 | -23.95057 | -47.21851 | 22019 ft | 403 kts | 234° |
| 2026-05-05 10:47 | -23.96624 | -47.24411 | 22491 ft | 406 kts | 234° |
| 2026-05-05 10:47 | -23.98180 | -47.26955 | 22955 ft | 409 kts | 234° |
| 2026-05-05 10:47 | -23.99764 | -47.29544 | 23631 ft | 405 kts | 234° |
| 2026-05-05 10:48 | -24.01308 | -47.32073 | 24521 ft | 393 kts | 234° |
| 2026-05-05 10:48 | -24.02807 | -47.34528 | 25408 ft | 382 kts | 234° |
| 2026-05-05 10:48 | -24.04261 | -47.36910 | 26238 ft | 373 kts | 235° |
| 2026-05-05 10:48 | -24.05693 | -47.39254 | 26899 ft | 368 kts | 235° |
| 2026-05-05 10:49 | -24.07090 | -47.41545 | 27540 ft | 364 kts | 235° |
| 2026-05-05 10:49 | -24.08499 | -47.43853 | 28049 ft | 364 kts | 235° |
| 2026-05-05 10:49 | -24.09938 | -47.46145 | 28470 ft | 366 kts | 230° |
| 2026-05-05 10:49 | -24.11838 | -47.47992 | 28889 ft | 367 kts | 213° |
| 2026-05-05 10:50 | -24.13993 | -47.49507 | 29262 ft | 369 kts | 215° |
| 2026-05-05 10:50 | -24.16156 | -47.51061 | 29618 ft | 372 kts | 214° |
| 2026-05-05 10:50 | -24.18307 | -47.52583 | 30026 ft | 374 kts | 214° |
| 2026-05-05 10:50 | -24.20507 | -47.54127 | 30200 ft | 380 kts | 214° |
| 2026-05-05 10:51 | -24.22769 | -47.55704 | 30163 ft | 391 kts | 214° |
| 2026-05-05 10:51 | -24.27487 | -47.58989 | 30158 ft | 410 kts | 214° |
| 2026-05-05 10:52 | -24.32408 | -47.62416 | 30158 ft | 426 kts | 214° |
| 2026-05-05 10:52 | -24.37498 | -47.65964 | 30152 ft | 439 kts | 214° |
| 2026-05-05 10:53 | -24.42589 | -47.69636 | 30159 ft | 439 kts | 219° |
| 2026-05-05 10:53 | -24.47436 | -47.73702 | 30163 ft | 440 kts | 218° |
| 2026-05-05 10:54 | -24.52317 | -47.77728 | 30151 ft | 440 kts | 218° |
| 2026-05-05 10:54 | -24.57218 | -47.81761 | 30157 ft | 439 kts | 218° |
| 2026-05-05 10:55 | -24.62105 | -47.85788 | 30157 ft | 439 kts | 218° |
| 2026-05-05 10:55 | -24.66974 | -47.89803 | 30152 ft | 439 kts | 218° |
| 2026-05-05 10:56 | -24.71879 | -47.93851 | 30167 ft | 439 kts | 218° |
| 2026-05-05 10:56 | -24.76740 | -47.97868 | 29496 ft | 438 kts | 218° |
| 2026-05-05 10:56 | -24.79197 | -47.99899 | 28461 ft | 441 kts | 218° |
| 2026-05-05 10:57 | -24.81649 | -48.01928 | 27586 ft | 442 kts | 218° |
| 2026-05-05 10:57 | -24.84114 | -48.03967 | 26713 ft | 442 kts | 217° |
| 2026-05-05 10:57 | -24.86541 | -48.05978 | 25987 ft | 440 kts | 217° |
| 2026-05-05 10:57 | -24.88996 | -48.08012 | 25308 ft | 443 kts | 217° |
| 2026-05-05 10:58 | -24.91470 | -48.10063 | 24605 ft | 446 kts | 217° |
| 2026-05-05 10:58 | -24.93954 | -48.12123 | 23930 ft | 448 kts | 217° |
| 2026-05-05 10:58 | -24.96447 | -48.14192 | 23163 ft | 446 kts | 217° |
| 2026-05-05 10:58 | -24.98905 | -48.16233 | 22447 ft | 440 kts | 217° |
| 2026-05-05 10:59 | -25.01316 | -48.18236 | 21776 ft | 435 kts | 217° |
| 2026-05-05 10:59 | -25.03720 | -48.20234 | 21117 ft | 431 kts | 217° |
| 2026-05-05 10:59 | -25.06113 | -48.22224 | 20459 ft | 427 kts | 217° |
| 2026-05-05 10:59 | -25.08470 | -48.24185 | 19819 ft | 423 kts | 217° |
| 2026-05-05 11:00 | -25.10819 | -48.26141 | 19161 ft | 420 kts | 217° |
| 2026-05-05 11:00 | -25.13114 | -48.28051 | 18535 ft | 417 kts | 217° |
| 2026-05-05 11:00 | -25.15422 | -48.29973 | 17827 ft | 414 kts | 217° |
| 2026-05-05 11:00 | -25.17713 | -48.31884 | 17245 ft | 409 kts | 217° |
| 2026-05-05 11:01 | -25.19962 | -48.33766 | 16858 ft | 404 kts | 217° |
| 2026-05-05 11:01 | -25.22199 | -48.35639 | 16530 ft | 404 kts | 217° |
| 2026-05-05 11:01 | -25.24507 | -48.37334 | 16167 ft | 403 kts | 206° |
| 2026-05-05 11:01 | -25.27187 | -48.38259 | 15854 ft | 403 kts | 191° |
| 2026-05-05 11:02 | -25.29952 | -48.38736 | 15529 ft | 400 kts | 189° |
| 2026-05-05 11:02 | -25.32677 | -48.39171 | 15209 ft | 390 kts | 189° |
| 2026-05-05 11:02 | -25.35338 | -48.39577 | 14916 ft | 381 kts | 188° |
| 2026-05-05 11:02 | -25.37942 | -48.39960 | 14629 ft | 373 kts | 188° |
| 2026-05-05 11:03 | -25.40450 | -48.40324 | 14363 ft | 364 kts | 188° |
| 2026-05-05 11:03 | -25.42944 | -48.40682 | 14060 ft | 358 kts | 188° |
| 2026-05-05 11:03 | -25.45418 | -48.41037 | 13670 ft | 354 kts | 188° |
| 2026-05-05 11:03 | -25.47836 | -48.41384 | 13343 ft | 348 kts | 188° |
| 2026-05-05 11:04 | -25.50194 | -48.41723 | 13043 ft | 342 kts | 188° |
| 2026-05-05 11:04 | -25.52540 | -48.42059 | 12740 ft | 336 kts | 188° |
| 2026-05-05 11:04 | -25.54840 | -48.42389 | 12445 ft | 331 kts | 188° |
| 2026-05-05 11:04 | -25.57108 | -48.42715 | 12150 ft | 325 kts | 188° |
| 2026-05-05 11:05 | -25.59339 | -48.43036 | 11866 ft | 320 kts | 189° |
| 2026-05-05 11:05 | -25.61528 | -48.43332 | 11565 ft | 310 kts | 187° |
| 2026-05-05 11:05 | -25.63626 | -48.43546 | 11282 ft | 297 kts | 187° |
| 2026-05-05 11:05 | -25.65612 | -48.43753 | 11051 ft | 284 kts | 187° |
| 2026-05-05 11:06 | -25.67563 | -48.43958 | 10821 ft | 280 kts | 187° |
| 2026-05-05 11:06 | -25.69508 | -48.44165 | 10593 ft | 281 kts | 187° |
| 2026-05-05 11:06 | -25.71451 | -48.44371 | 10365 ft | 281 kts | 187° |
| 2026-05-05 11:06 | -25.73401 | -48.44578 | 10124 ft | 281 kts | 187° |
| 2026-05-05 11:07 | -25.75346 | -48.44786 | 9863 ft | 280 kts | 188° |
| 2026-05-05 11:07 | -25.77288 | -48.44993 | 9603 ft | 280 kts | 188° |
| 2026-05-05 11:07 | -25.79201 | -48.45197 | 9357 ft | 279 kts | 188° |
| 2026-05-05 11:07 | -25.81126 | -48.45402 | 9131 ft | 278 kts | 188° |
| 2026-05-05 11:08 | -25.83054 | -48.45608 | 8892 ft | 277 kts | 188° |
| 2026-05-05 11:08 | -25.84974 | -48.45813 | 8657 ft | 276 kts | 188° |
| 2026-05-05 11:08 | -25.86895 | -48.46018 | 8386 ft | 277 kts | 188° |
| 2026-05-05 11:08 | -25.88816 | -48.46226 | 8069 ft | 277 kts | 190° |
| 2026-05-05 11:09 | -25.90667 | -48.46692 | 7815 ft | 270 kts | 200° |
| 2026-05-05 11:09 | -25.92460 | -48.47270 | 7637 ft | 268 kts | 200° |
| 2026-05-05 11:09 | -25.94238 | -48.47836 | 7481 ft | 270 kts | 199° |
| 2026-05-05 11:09 | -25.96040 | -48.48404 | 7306 ft | 269 kts | 199° |
| 2026-05-05 11:10 | -25.97844 | -48.48971 | 7129 ft | 269 kts | 199° |
| 2026-05-05 11:10 | -25.99645 | -48.49536 | 6949 ft | 269 kts | 200° |
| 2026-05-05 11:10 | -26.01447 | -48.50101 | 6766 ft | 268 kts | 200° |
| 2026-05-05 11:10 | -26.03244 | -48.50664 | 6582 ft | 268 kts | 200° |
| 2026-05-05 11:11 | -26.05036 | -48.51224 | 6388 ft | 267 kts | 200° |
| 2026-05-05 11:11 | -26.06800 | -48.51777 | 6202 ft | 266 kts | 199° |
| 2026-05-05 11:11 | -26.08582 | -48.52335 | 6025 ft | 265 kts | 199° |
| 2026-05-05 11:11 | -26.10355 | -48.52891 | 5839 ft | 264 kts | 199° |
| 2026-05-05 11:12 | -26.12116 | -48.53443 | 5656 ft | 262 kts | 199° |
| 2026-05-05 11:12 | -26.13872 | -48.53994 | 5474 ft | 259 kts | 199° |
| 2026-05-05 11:12 | -26.15590 | -48.54533 | 5310 ft | 252 kts | 199° |
| 2026-05-05 11:12 | -26.17254 | -48.55055 | 5166 ft | 244 kts | 199° |
| 2026-05-05 11:13 | -26.18847 | -48.55555 | 4990 ft | 238 kts | 199° |
| 2026-05-05 11:13 | -26.20418 | -48.56049 | 4813 ft | 232 kts | 199° |
| 2026-05-05 11:13 | -26.21932 | -48.56524 | 4669 ft | 219 kts | 199° |
| 2026-05-05 11:13 | -26.23369 | -48.56976 | 4492 ft | 209 kts | 199° |
| 2026-05-05 11:14 | -26.24730 | -48.57403 | 4331 ft | 198 kts | 199° |
| 2026-05-05 11:14 | -26.25912 | -48.58072 | 4147 ft | 185 kts | 220° |
| 2026-05-05 11:14 | -26.26891 | -48.58916 | 4008 ft | 176 kts | 220° |
| 2026-05-05 11:14 | -26.27864 | -48.59763 | 3910 ft | 178 kts | 220° |
| 2026-05-05 11:15 | -26.28843 | -48.60621 | 3836 ft | 179 kts | 220° |
| 2026-05-05 11:15 | -26.29821 | -48.61484 | 3739 ft | 179 kts | 220° |
| 2026-05-05 11:15 | -26.30793 | -48.62346 | 3624 ft | 179 kts | 220° |
| 2026-05-05 11:15 | -26.31749 | -48.63204 | 3510 ft | 178 kts | 224° |
| 2026-05-05 11:16 | -26.32368 | -48.64361 | 3303 ft | 174 kts | 260° |
| 2026-05-05 11:16 | -26.32274 | -48.65681 | 3058 ft | 172 kts | 292° |
| 2026-05-05 11:16 | -26.31691 | -48.66859 | 2836 ft | 175 kts | 304° |
| 2026-05-05 11:16 | -26.30978 | -48.67962 | 2563 ft | 175 kts | 307° |
| 2026-05-05 11:17 | -26.30250 | -48.69000 | 2313 ft | 162 kts | 309° |
| 2026-05-05 11:17 | -26.29582 | -48.69923 | 2101 ft | 149 kts | 309° |
| 2026-05-05 11:17 | -26.28937 | -48.70812 | 1928 ft | 147 kts | 309° |
| 2026-05-05 11:17 | -26.28293 | -48.71697 | 1703 ft | 146 kts | 309° |
| 2026-05-05 11:18 | -26.27650 | -48.72583 | 1494 ft | 146 kts | 309° |
| 2026-05-05 11:18 | -26.27010 | -48.73462 | 1296 ft | 146 kts | 309° |
| 2026-05-05 11:18 | -26.26369 | -48.74343 | 1104 ft | 146 kts | 309° |
| 2026-05-05 11:18 | -26.25738 | -48.75212 | 935 ft | 146 kts | 308° |
| 2026-05-05 11:19 | -26.25096 | -48.76093 | 745 ft | 148 kts | 309° |
| 2026-05-05 11:19 | -26.24454 | -48.76976 | 539 ft | 144 kts | 309° |
| 2026-05-05 11:19 | -26.23823 | -48.77843 | 356 ft | 144 kts | 309° |
| 2026-05-05 11:19 | -26.23198 | -48.78701 | 146 ft | 141 kts | 309° |
| 2026-05-05 11:20 | -26.22590 | -48.79541 | 27 ft | 132 kts | 309° |
| 2026-05-05 11:20 | -26.22159 | -48.80133 | 28 ft | 70 kts | 309° |
| 2026-05-05 11:20 | -26.22013 | -48.80345 | 28 ft | 14 kts | 281° |
| 2026-05-05 11:20 | -26.22042 | -48.80375 | 27 ft | 6 kts | 183° |
| 2026-05-05 11:21 | -26.22094 | -48.80370 | 28 ft | 9 kts | 173° |
| 2026-05-05 11:21 | -26.22150 | -48.80340 | 26 ft | 10 kts | 130° |
| 2026-05-05 11:21 | -26.22190 | -48.80284 | 29 ft | 18 kts | 129° |
| 2026-05-05 11:21 | -26.22267 | -48.80154 | 28 ft | 13 kts | 114° |
| 2026-05-05 11:22 | -26.22293 | -48.80109 | 26 ft | 8 kts | 125° |
| 2026-05-05 11:22 | -26.22319 | -48.80094 | 26 ft | 1 kts | 213° |
| 2026-05-05 11:22 | -26.22337 | -48.80111 | 26 ft | 5 kts | 219° |
| 2026-05-05 11:22 | -26.22366 | -48.80138 | 28 ft | 5 kts | 221° |
| 2026-05-05 11:23 | -26.22368 | -48.80140 | 28 ft | 0 kts | 221° |